createdAt,value
2022-11-08T00:00:31.034Z,2.97
2022-11-08T00:05:49.272Z,2.58
2022-11-08T00:11:07.675Z,3.30
2022-11-08T00:16:10.031Z,2.90
2022-11-08T00:21:10.845Z,2.22
2022-11-08T00:26:11.646Z,2.80
2022-11-08T00:31:13.785Z,2.38
2022-11-08T00:36:14.568Z,2.50
2022-11-08T00:41:15.337Z,3.15
2022-11-08T00:46:17.580Z,2.70
2022-11-08T00:51:18.369Z,2.42
2022-11-08T00:56:19.241Z,2.58
2022-11-08T01:01:22.676Z,3.05
2022-11-08T01:06:25.329Z,2.40
2022-11-08T01:11:27.098Z,2.33
2022-11-08T01:16:31.676Z,2.22
2022-11-08T01:21:32.614Z,2.35
2022-11-08T01:26:33.411Z,2.58
2022-11-08T01:31:35.604Z,2.55
2022-11-08T01:36:36.451Z,2.75
2022-11-08T01:41:37.225Z,2.80
2022-11-08T01:46:48.020Z,2.50
2022-11-08T01:51:56.510Z,2.40
2022-11-08T01:56:58.799Z,2.22
2022-11-08T02:02:01.189Z,2.88
2022-11-08T02:07:03.700Z,2.60
2022-11-08T02:12:05.228Z,2.95
2022-11-08T02:17:09.638Z,3.00
2022-11-08T02:22:30.188Z,3.00
2022-11-08T02:27:32.332Z,3.25
2022-11-08T02:32:39.215Z,3.47
2022-11-08T02:37:40.054Z,3.47
2022-11-08T02:42:42.240Z,3.42
2022-11-08T02:47:42.999Z,3.90
2022-11-08T02:52:43.779Z,3.95
2022-11-08T02:57:45.888Z,4.40
2022-11-08T03:02:52.049Z,4.03
2022-11-08T03:07:53.003Z,4.15
2022-11-08T03:12:57.506Z,4.75
2022-11-08T03:17:59.914Z,4.90
2022-11-08T03:23:01.783Z,5.20
2022-11-08T03:28:04.756Z,4.50
2022-11-08T03:33:05.628Z,4.15
2022-11-08T03:38:06.385Z,4.78
2022-11-08T03:43:08.590Z,5.07
2022-11-08T03:48:09.529Z,6.07
2022-11-08T03:53:10.327Z,4.80
2022-11-08T03:58:12.729Z,5.40
2022-11-08T04:03:13.531Z,5.88
2022-11-08T04:08:14.345Z,5.45
2022-11-08T04:13:34.100Z,6.50
2022-11-08T04:18:52.219Z,5.88
2022-11-08T04:23:53.536Z,6.22
2022-11-08T04:28:55.670Z,5.38
2022-11-08T04:33:56.468Z,5.28
2022-11-08T04:38:57.320Z,5.53
2022-11-08T04:43:59.787Z,5.60
2022-11-08T04:49:01.623Z,5.97
2022-11-08T04:54:06.245Z,6.15
2022-11-08T04:59:11.888Z,5.65
2022-11-08T05:04:13.120Z,6.28
2022-11-08T05:09:13.891Z,6.30
2022-11-08T05:14:16.044Z,7.22
2022-11-08T05:19:37.082Z,6.70
2022-11-08T05:24:37.904Z,6.72
2022-11-08T05:29:42.312Z,7.22
2022-11-08T05:34:43.197Z,6.75
2022-11-08T05:39:44.027Z,6.50
2022-11-08T05:44:46.189Z,6.90
2022-11-08T05:49:47.081Z,6.82
2022-11-08T05:54:47.864Z,6.68
2022-11-08T05:59:50.100Z,7.10
2022-11-08T06:04:51.065Z,6.78
2022-11-08T06:09:52.336Z,6.78
2022-11-08T06:14:54.448Z,6.65
2022-11-08T06:19:55.205Z,6.28
2022-11-08T06:24:56.003Z,6.60
2022-11-08T06:29:58.108Z,7.85
2022-11-08T06:34:58.923Z,7.43
2022-11-08T06:39:59.919Z,6.47
2022-11-08T06:45:02.032Z,6.78
2022-11-08T06:50:02.825Z,6.30
2022-11-08T06:55:03.851Z,6.50
2022-11-08T07:00:07.237Z,6.22
2022-11-08T07:05:08.337Z,6.43
2022-11-08T07:10:10.048Z,6.32
2022-11-08T07:15:12.504Z,6.07
2022-11-08T07:20:13.983Z,5.90
2022-11-08T07:25:14.826Z,6.65
2022-11-08T07:30:17.094Z,6.03
2022-11-08T07:35:17.966Z,6.20
2022-11-08T07:40:19.011Z,6.65
2022-11-08T07:45:21.176Z,6.60
2022-11-08T07:50:22.257Z,5.97
2022-11-08T07:55:23.318Z,7.68
2022-11-08T08:00:25.603Z,6.32
2022-11-08T08:05:27.283Z,6.47
2022-11-08T08:10:28.994Z,5.68
2022-11-08T08:15:31.348Z,5.97
2022-11-08T08:20:32.916Z,6.50
2022-11-08T08:25:33.916Z,5.07
2022-11-08T08:30:36.827Z,5.50
2022-11-08T08:35:38.070Z,5.88
2022-11-08T08:40:39.058Z,5.25
2022-11-08T08:45:41.921Z,5.35
2022-11-08T08:50:43.206Z,5.18
2022-11-08T08:55:44.064Z,5.93
2022-11-08T09:06:09.869Z,5.40
2022-11-08T09:11:10.729Z,5.20
2022-11-08T09:16:14.278Z,5.70
2022-11-08T09:21:15.262Z,4.72
2022-11-08T09:26:16.322Z,4.80
2022-11-08T09:31:18.461Z,4.65
2022-11-08T09:36:19.262Z,4.97
2022-11-08T09:41:40.358Z,4.55
2022-11-08T09:46:51.003Z,4.90
2022-11-08T09:51:52.538Z,4.22
2022-11-08T09:56:55.471Z,3.83
2022-11-08T10:01:57.874Z,4.60
2022-11-08T10:07:16.439Z,4.05
2022-11-08T10:12:26.315Z,3.80
2022-11-08T10:17:45.013Z,3.75
2022-11-08T10:22:55.679Z,3.88
2022-11-08T10:28:00.960Z,3.42
2022-11-08T10:33:03.881Z,3.20
2022-11-08T10:38:14.717Z,3.22
2022-11-08T10:43:20.886Z,2.85
2022-11-08T10:48:23.297Z,3.28
2022-11-08T10:53:27.940Z,3.10
2022-11-08T10:58:37.856Z,2.67
2022-11-08T11:03:40.115Z,2.88
2022-11-08T11:08:50.288Z,2.22
2022-11-08T11:14:06.803Z,2.25
2022-11-08T11:19:16.111Z,2.20
2022-11-08T11:24:20.742Z,1.73
2022-11-08T11:29:25.030Z,1.10
2022-11-08T11:34:44.779Z,1.00
2022-11-08T11:39:53.057Z,1.27
2022-11-08T11:45:07.591Z,1.30
2022-11-08T11:50:33.130Z,1.30
2022-11-08T11:55:51.781Z,1.65
2022-11-08T12:00:58.841Z,1.20
2022-11-08T12:06:22.351Z,1.20
2022-11-08T12:11:44.276Z,1.85
2022-11-08T12:16:57.130Z,1.10
2022-11-08T12:22:13.217Z,1.55
2022-11-08T12:27:22.556Z,1.35
2022-11-08T12:32:40.774Z,1.10
2022-11-08T12:37:55.135Z,1.10
2022-11-08T12:43:11.842Z,1.55
2022-11-08T12:48:22.370Z,1.80
2022-11-08T12:53:39.383Z,2.40
2022-11-08T12:58:44.019Z,1.88
2022-11-08T13:04:20.042Z,2.20
2022-11-08T13:09:31.513Z,1.88
2022-11-08T13:14:38.576Z,2.13
2022-11-08T13:20:00.781Z,1.88
2022-11-08T13:25:26.260Z,2.42
2022-11-08T13:30:43.077Z,2.22
2022-11-08T13:35:52.042Z,2.45
2022-11-08T13:41:18.579Z,2.10
2022-11-08T13:46:50.459Z,2.92
2022-11-08T13:51:52.517Z,3.08
2022-11-08T13:56:55.904Z,3.80
2022-11-08T14:02:01.268Z,3.50
2022-11-08T14:07:07.967Z,4.40
2022-11-08T14:12:17.001Z,3.97
2022-11-08T14:17:28.058Z,3.97
2022-11-08T14:22:31.216Z,4.05
2022-11-08T14:27:39.088Z,3.25
2022-11-08T14:32:39.907Z,3.90
2022-11-08T14:37:43.994Z,3.65
2022-11-08T14:42:46.589Z,3.15
2022-11-08T14:47:48.075Z,3.97
2022-11-08T14:52:49.273Z,3.78
2022-11-08T14:57:52.064Z,4.13
2022-11-08T15:02:56.259Z,4.03
2022-11-08T15:07:58.112Z,4.07
2022-11-08T15:13:00.515Z,4.40
2022-11-08T15:18:15.019Z,3.92
2022-11-08T15:23:28.270Z,3.95
2022-11-08T15:28:35.241Z,4.00
2022-11-08T15:33:39.029Z,3.92
2022-11-08T15:38:41.692Z,3.75
2022-11-08T15:43:43.860Z,3.55
2022-11-08T15:48:56.076Z,3.35
2022-11-08T15:53:57.065Z,4.35
2022-11-08T15:58:59.352Z,4.57
2022-11-08T16:04:00.198Z,3.90
2022-11-08T16:09:00.997Z,4.50
2022-11-08T16:14:03.199Z,4.85
2022-11-08T16:19:04.387Z,4.80
2022-11-08T16:24:05.355Z,4.13
2022-11-08T16:29:08.722Z,4.78
2022-11-08T16:34:11.867Z,4.32
2022-11-08T16:39:16.489Z,4.13
2022-11-08T16:44:19.154Z,4.85
2022-11-08T16:49:23.006Z,5.65
2022-11-08T16:54:28.351Z,5.38
2022-11-08T16:59:30.737Z,5.43
2022-11-08T17:04:31.981Z,4.90
2022-11-08T17:09:32.789Z,3.83
2022-11-08T17:14:34.935Z,5.15
2022-11-08T17:19:35.840Z,4.47
2022-11-08T17:24:36.652Z,4.85
2022-11-08T17:29:38.774Z,4.72
2022-11-08T17:34:39.910Z,4.75
2022-11-08T17:39:40.695Z,4.70
2022-11-08T17:44:42.829Z,4.63
2022-11-08T17:49:44.251Z,5.00
2022-11-08T17:54:48.982Z,5.18
2022-11-08T17:59:54.011Z,5.80
2022-11-08T18:04:55.992Z,4.55
2022-11-08T18:09:56.807Z,5.07
2022-11-08T18:14:59.067Z,5.47
2022-11-08T18:19:59.909Z,5.40
2022-11-08T18:25:00.755Z,4.70
2022-11-08T18:30:03.155Z,4.90
2022-11-08T18:35:04.022Z,4.78
2022-11-08T18:40:05.637Z,5.20
2022-11-08T18:45:09.114Z,4.63
2022-11-08T18:50:10.622Z,4.65
2022-11-08T18:55:12.059Z,4.93
2022-11-08T19:00:14.852Z,5.20
2022-11-08T19:05:15.749Z,4.68
2022-11-08T19:10:16.605Z,5.60
2022-11-08T19:15:19.763Z,4.60
2022-11-08T19:20:20.693Z,6.20
2022-11-08T19:25:21.564Z,5.15
2022-11-08T19:30:23.728Z,4.95
2022-11-08T19:35:24.547Z,4.90
2022-11-08T19:40:30.831Z,5.88
2022-11-08T19:45:34.232Z,4.75
2022-11-08T19:50:35.065Z,5.05
2022-11-08T19:55:36.093Z,4.80
2022-11-08T20:00:39.353Z,4.80
2022-11-08T20:05:40.239Z,4.38
2022-11-08T20:10:41.071Z,4.93
2022-11-08T20:15:43.287Z,4.50
2022-11-08T20:20:44.675Z,4.10
2022-11-08T20:25:45.481Z,3.80
2022-11-08T20:30:47.793Z,3.70
2022-11-08T20:35:48.622Z,3.80
2022-11-08T20:40:49.460Z,4.50
2022-11-08T20:45:51.666Z,4.15
2022-11-08T20:50:52.481Z,4.25
2022-11-08T20:56:00.544Z,4.22
2022-11-08T21:01:04.624Z,4.05
2022-11-08T21:06:07.330Z,4.13
2022-11-08T21:11:09.785Z,4.30
2022-11-08T21:16:29.332Z,5.72
2022-11-08T21:21:31.146Z,3.85
2022-11-08T21:26:36.196Z,4.85
2022-11-08T21:31:38.692Z,4.35
2022-11-08T21:36:39.690Z,4.75
2022-11-08T21:41:40.765Z,5.25
2022-11-08T21:46:42.985Z,5.15
2022-11-08T21:51:43.800Z,4.90
2022-11-08T21:56:44.538Z,4.65
2022-11-08T22:01:46.612Z,4.97
2022-11-08T22:06:47.936Z,4.85
2022-11-08T22:11:48.910Z,5.10
2022-11-08T22:16:51.050Z,5.07
2022-11-08T22:21:51.914Z,6.47
2022-11-08T22:26:53.368Z,6.95
2022-11-08T22:31:55.906Z,7.43
2022-11-08T22:36:56.660Z,8.15
2022-11-08T22:41:57.427Z,7.95
2022-11-08T22:46:59.512Z,8.35
2022-11-08T22:52:00.293Z,8.52
2022-11-08T22:57:01.064Z,9.13
2022-11-08T23:02:03.371Z,8.65
2022-11-08T23:07:04.204Z,9.23
2022-11-08T23:12:22.605Z,9.20
2022-11-08T23:17:24.708Z,9.50
2022-11-08T23:22:43.145Z,10.00
2022-11-08T23:28:01.185Z,10.50
2022-11-08T23:33:05.707Z,10.00
2022-11-08T23:38:06.525Z,11.10
2022-11-08T23:43:27.605Z,11.20
2022-11-08T23:48:29.727Z,11.52
2022-11-08T23:53:30.578Z,11.27
2022-11-08T23:58:31.378Z,11.65
